Time;durP1;ratioP1;P1;durP2;ratioP2;P2;SDS_P1;SDS_P2;PMS_P1;PMS_P2;Temp;Humidity;BMP_temperature;BMP_pressure;BME280_temperature;BME280_humidity;BME280_pressure;Samples;Min_cycle;Max_cycle;Signal;HPM_P1;HPM_P2
2022/08/26 00:00:34;;;;;;;;;;;;;;;16.61;57.70;100009.28;5068869;28;1028;-54
2022/08/26 00:02:59;;;;;;;;;;;;;;;16.60;57.47;99996.66;5067272;28;953;-52
2022/08/26 00:05:25;;;;;;;;;;;;;;;16.50;57.57;100003.09;5066718;28;1052;-54
2022/08/26 00:07:51;;;;;;;;;;;;;;;16.48;57.48;99999.00;5061917;28;949;-55
2022/08/26 00:10:17;;;;;;;;;;;;;;;16.44;57.16;100004.25;5058292;28;1993;-52
2022/08/26 00:12:42;;;;;;;;;;;;;;;16.47;57.22;100008.34;5072084;28;1008;-53
2022/08/26 00:15:08;;;;;;;;;;;;;;;16.42;57.17;100010.06;5073174;28;1179;-55
2022/08/26 00:17:33;;;;;;;;;;;;;;;16.40;57.17;100006.75;5073524;28;1060;-52
2022/08/26 00:19:59;;;;;;;;;;;;;;;16.37;57.27;100001.88;5076440;28;1139;-52
2022/08/26 00:22:24;;;;;;;;;;;;;;;16.39;56.96;100001.56;5066936;28;1097;-55
2022/08/26 00:24:50;;;;;;;;;;;;;;;16.35;57.09;100012.28;5072508;28;1000;-51
2022/08/26 00:27:15;;;;;;;;;;;;;;;16.35;57.07;99995.84;5070586;28;2207;-54
2022/08/26 00:29:41;;;;;;;;;;;;;;;16.29;57.03;99999.75;5065661;28;1972;-55
2022/08/26 00:32:06;;;;;;;;;;;;;;;16.29;56.95;99994.25;5073894;28;1190;-53
2022/08/26 00:34:32;;;;;;;;;;;;;;;16.30;56.92;99993.16;5074824;28;1041;-52
2022/08/26 00:36:57;;;;;;;;;;;;;;;16.28;56.90;100000.03;5074139;28;1012;-51
2022/08/26 00:39:23;;;;;;;;;;;;;;;16.29;56.93;100001.69;5070549;28;1059;-53
2022/08/26 00:41:49;;;;;;;;;;;;;;;16.23;57.09;99992.69;5060058;28;957;-52
2022/08/26 00:44:14;;;;;;;;;;;;;;;16.24;56.64;99994.31;5069185;28;1128;-53
2022/08/26 00:46:41;;;;;;;;;;;;;;;16.21;57.00;99992.97;5074059;28;1013;-53
2022/08/26 00:49:08;;;;;;;;;;;;;;;16.20;56.95;99999.56;5076211;28;1926;-54
2022/08/26 00:51:34;;;;;;;;;;;;;;;16.22;56.66;99985.56;5057399;28;1175;-53
2022/08/26 00:54:01;;;;;;;;;;;;;;;16.23;56.79;99985.28;5059321;28;1017;-51
2022/08/26 00:56:37;;;;;;;;;;;;;;;16.18;56.73;99984.50;5053255;28;2322;-52
2022/08/26 00:59:05;;;;;;;;;;;;;;;16.17;56.92;99988.34;5052482;28;973;-53
2022/08/26 01:01:30;;;;;;;;;;;;;;;16.95;57.82;99985.56;5050763;28;1493;-55
2022/08/26 01:03:56;;;;;;;;;;;;;;;17.13;58.45;99983.94;5072000;28;1033;-52
2022/08/26 01:06:22;;;;;;;;;;;;;;;16.74;58.58;99992.09;5054260;28;1018;-53
2022/08/26 01:08:47;;;;;;;;;;;;;;;16.64;58.22;99994.16;5071581;28;1973;-55
2022/08/26 01:11:13;;;;;;;;;;;;;;;16.56;57.96;100004.69;5065888;28;1048;-55
2022/08/26 01:13:38;;;;;;;;;;;;;;;16.50;57.72;99996.78;5051969;28;1140;-55
2022/08/26 01:16:05;;;;;;;;;;;;;;;16.48;57.58;99994.34;5068397;28;952;-55
2022/08/26 01:18:30;;;;;;;;;;;;;;;16.46;57.25;99990.25;5076600;28;1127;-54
2022/08/26 01:21:00;;;;;;;;;;;;;;;16.42;57.35;99990.00;5068686;28;799;-55
2022/08/26 01:23:27;;;;;;;;;;;;;;;16.40;57.00;99987.56;5065688;28;982;-52
2022/08/26 01:25:54;;;;;;;;;;;;;;;16.36;57.06;99981.00;5069392;28;1796;-55
2022/08/26 01:28:22;;;;;;;;;;;;;;;16.30;57.16;99986.84;5072168;28;985;-50
2022/08/26 01:30:47;;;;;;;;;;;;;;;16.37;56.88;99981.84;5052335;28;1095;-52
2022/08/26 01:33:14;;;;;;;;;;;;;;;16.84;57.91;99976.59;5049406;28;970;-54
2022/08/26 01:35:39;;;;;;;;;;;;;;;17.35;58.29;99986.06;5071367;28;1112;-55
2022/08/26 01:38:05;;;;;;;;;;;;;;;16.89;58.62;99976.59;5076005;28;1000;-55
2022/08/26 01:40:32;;;;;;;;;;;;;;;16.74;58.20;99974.81;5076419;28;1190;-55
2022/08/26 01:42:58;;;;;;;;;;;;;;;16.65;58.11;99971.91;5058969;28;1060;-55
2022/08/26 01:45:25;;;;;;;;;;;;;;;16.60;57.88;99974.72;5050304;28;853;-55
2022/08/26 01:47:52;;;;;;;;;;;;;;;16.56;57.74;99970.91;5052519;28;1152;-55
2022/08/26 01:50:20;;;;;;;;;;;;;;;16.53;57.43;99964.06;5068285;28;1914;-53
2022/08/26 01:52:46;;;;;;;;;;;;;;;16.47;57.38;99969.94;5054468;28;1121;-54
2022/08/26 01:55:13;;;;;;;;;;;;;;;16.51;57.28;99965.47;5052736;28;1025;-53
2022/08/26 01:57:39;;;;;;;;;;;;;;;16.48;57.23;99955.94;5045770;28;1469;-55
2022/08/26 02:00:05;;;;;;;;;;;;;;;16.41;57.32;99961.75;5048706;28;1212;-55
2022/08/26 02:02:37;;;;;;;;;;;;;;;16.45;56.93;99956.50;5072631;28;1009;-54
2022/08/26 02:05:03;;;;;;;;;;;;;;;16.38;57.05;99956.88;5060177;28;1184;-55
2022/08/26 02:07:29;;;;;;;;;;;;;;;16.43;57.02;99956.78;5070699;28;981;-55
2022/08/26 02:09:55;;;;;;;;;;;;;;;16.37;56.90;99959.91;5043364;28;1977;-55
2022/08/26 02:12:20;;;;;;;;;;;;;;;16.35;57.04;99949.19;5070361;28;997;-54
2022/08/26 02:14:50;;;;;;;;;;;;;;;16.33;56.74;99954.16;5070223;28;1136;-54
2022/08/26 02:17:16;;;;;;;;;;;;;;;16.29;57.10;99963.28;5051587;28;978;-54
2022/08/26 02:19:44;;;;;;;;;;;;;;;16.32;56.94;99952.53;5064111;28;950;-55
2022/08/26 02:22:13;;;;;;;;;;;;;;;16.28;56.96;99964.38;5065009;28;1139;-55
2022/08/26 02:24:47;;;;;;;;;;;;;;;16.24;56.87;99950.41;5072284;28;969;-55
2022/08/26 02:27:13;;;;;;;;;;;;;;;16.22;56.88;99952.66;5071546;28;1826;-54
2022/08/26 02:29:40;;;;;;;;;;;;;;;16.23;56.93;99959.78;5065629;28;1989;-54
2022/08/26 02:32:06;;;;;;;;;;;;;;;16.20;56.75;99954.84;5043212;28;1176;-55
2022/08/26 02:34:31;;;;;;;;;;;;;;;16.22;56.61;99958.13;5062598;28;947;-55
2022/08/26 02:36:57;;;;;;;;;;;;;;;16.17;56.79;99955.44;5069904;28;1140;-55
2022/08/26 02:39:23;;;;;;;;;;;;;;;16.18;56.94;99957.09;5075930;28;1040;-55
2022/08/26 02:41:48;;;;;;;;;;;;;;;16.13;57.12;99965.34;5069119;28;942;-55
2022/08/26 02:44:14;;;;;;;;;;;;;;;16.16;56.59;99959.28;5071150;28;1092;-56
2022/08/26 02:46:39;;;;;;;;;;;;;;;16.79;57.66;99973.91;5069307;28;875;-55
2022/08/26 02:49:05;;;;;;;;;;;;;;;17.06;58.23;99965.88;5063635;28;1969;-55
2022/08/26 02:51:30;;;;;;;;;;;;;;;16.70;58.29;99951.81;5056666;28;981;-55
2022/08/26 02:53:56;;;;;;;;;;;;;;;16.59;58.24;99973.06;5069276;28;1016;-54
2022/08/26 02:56:21;;;;;;;;;;;;;;;16.52;57.87;99956.13;5067315;28;2362;-54
2022/08/26 02:58:47;;;;;;;;;;;;;;;16.46;57.78;99965.56;5061433;28;889;-55
2022/08/26 03:01:22;;;;;;;;;;;;;;;16.41;57.30;99966.41;5070830;28;1029;-52
2022/08/26 03:03:47;;;;;;;;;;;;;;;16.39;57.13;99969.44;5072199;28;946;-51
2022/08/26 03:06:13;;;;;;;;;;;;;;;16.36;56.91;99969.22;5073334;28;970;-53
2022/08/26 03:08:38;;;;;;;;;;;;;;;16.37;56.76;99971.69;5062339;28;1962;-53
2022/08/26 03:11:04;;;;;;;;;;;;;;;16.31;57.02;99972.03;5069419;28;1040;-52
2022/08/26 03:13:29;;;;;;;;;;;;;;;16.30;56.81;99964.91;5071180;28;1123;-53
2022/08/26 03:15:55;;;;;;;;;;;;;;;16.27;56.86;99970.97;5067584;28;1005;-55
2022/08/26 03:18:21;;;;;;;;;;;;;;;16.29;56.63;99964.09;5067760;28;965;-53
2022/08/26 03:20:46;;;;;;;;;;;;;;;16.26;56.76;99975.66;5072410;28;1040;-52
2022/08/26 03:23:12;;;;;;;;;;;;;;;16.22;56.94;99971.84;5069349;28;982;-53
2022/08/26 03:25:38;;;;;;;;;;;;;;;16.19;56.99;99972.44;5069436;28;1793;-53
2022/08/26 03:28:04;;;;;;;;;;;;;;;16.17;56.78;99967.25;5073355;28;1005;-54
2022/08/26 03:30:38;;;;;;;;;;;;;;;16.17;56.69;99971.91;5060122;28;1917;-53
2022/08/26 03:33:04;;;;;;;;;;;;;;;16.18;56.71;99968.06;5074372;28;1012;-52
2022/08/26 03:35:30;;;;;;;;;;;;;;;17.18;57.83;99967.38;5070172;28;1100;-53
2022/08/26 03:37:55;;;;;;;;;;;;;;;17.10;58.28;99968.88;5066844;28;1001;-52
2022/08/26 03:40:21;;;;;;;;;;;;;;;16.76;58.55;99973.41;5070027;28;1020;-52
2022/08/26 03:42:46;;;;;;;;;;;;;;;16.64;58.32;99973.00;5067453;28;1072;-55
2022/08/26 03:45:12;;;;;;;;;;;;;;;16.57;57.96;99980.78;5072764;28;1033;-48
2022/08/26 03:47:38;;;;;;;;;;;;;;;16.50;57.74;99975.66;5069447;28;1052;-53
2022/08/26 03:50:04;;;;;;;;;;;;;;;16.44;57.54;99982.31;5064638;28;1918;-51
2022/08/26 03:52:29;;;;;;;;;;;;;;;16.48;57.24;99983.38;5070249;28;1036;-52
2022/08/26 03:54:55;;;;;;;;;;;;;;;16.41;57.14;99980.97;5070428;28;1250;-54
2022/08/26 03:57:20;;;;;;;;;;;;;;;16.36;57.14;99992.00;5071458;28;2595;-55
2022/08/26 03:59:45;;;;;;;;;;;;;;;16.38;57.10;99973.31;5070510;28;1112;-58
2022/08/26 04:02:11;;;;;;;;;;;;;;;16.35;56.84;99978.56;5077373;28;1124;-55
2022/08/26 04:04:37;;;;;;;;;;;;;;;16.34;57.01;99982.41;5066623;28;1028;-57
2022/08/26 04:07:02;;;;;;;;;;;;;;;16.32;56.86;99973.66;5073119;28;957;-57
2022/08/26 04:09:28;;;;;;;;;;;;;;;16.28;56.63;99978.09;5072467;28;1910;-58
2022/08/26 04:11:53;;;;;;;;;;;;;;;16.28;56.85;99978.91;5067742;28;982;-61
2022/08/26 04:14:19;;;;;;;;;;;;;;;16.23;56.86;99981.72;5073120;28;1056;-60
2022/08/26 04:16:45;;;;;;;;;;;;;;;16.21;56.95;99981.19;5068348;28;878;-59
2022/08/26 04:19:11;;;;;;;;;;;;;;;16.22;56.69;99980.06;5072983;28;842;-57
2022/08/26 04:21:37;;;;;;;;;;;;;;;16.19;56.97;99980.66;5075349;28;1013;-58
2022/08/26 04:24:06;;;;;;;;;;;;;;;16.16;56.94;99986.72;5072018;28;860;-59
2022/08/26 04:26:35;;;;;;;;;;;;;;;16.20;56.79;99982.28;5071140;28;2246;-55
2022/08/26 04:29:01;;;;;;;;;;;;;;;16.15;56.96;99980.41;5064876;28;1909;-57
2022/08/26 04:31:27;;;;;;;;;;;;;;;16.13;56.86;99982.66;5078324;28;1017;-56
2022/08/26 04:33:52;;;;;;;;;;;;;;;16.14;56.75;99983.44;5078317;28;1076;-55
2022/08/26 04:36:17;;;;;;;;;;;;;;;17.34;57.67;99996.25;5075041;28;1001;-55
2022/08/26 04:38:44;;;;;;;;;;;;;;;17.06;58.35;99996.09;5067761;28;934;-49
2022/08/26 04:41:10;;;;;;;;;;;;;;;16.73;58.33;100001.47;5065413;28;1104;-54
2022/08/26 04:43:36;;;;;;;;;;;;;;;16.62;58.34;100004.59;5050357;28;1286;-56
2022/08/26 04:46:02;;;;;;;;;;;;;;;16.55;57.66;100000.28;5062290;28;1195;-53
2022/08/26 04:48:28;;;;;;;;;;;;;;;16.52;57.63;99995.41;5064685;28;1216;-54
2022/08/26 04:50:54;;;;;;;;;;;;;;;16.48;57.21;100008.06;5061496;28;1215;-54
2022/08/26 04:53:19;;;;;;;;;;;;;;;16.43;57.31;100008.91;5060772;28;1279;-53
2022/08/26 04:55:45;;;;;;;;;;;;;;;16.42;57.13;100006.47;5063132;28;1908;-54
2022/08/26 04:58:13;;;;;;;;;;;;;;;16.37;57.28;100010.09;5064925;28;1282;-53
2022/08/26 05:00:38;;;;;;;;;;;;;;;16.38;57.20;100005.41;5062286;28;1313;-53
2022/08/26 05:03:03;;;;;;;;;;;;;;;16.36;56.85;99999.41;5063025;28;1203;-53
2022/08/26 05:05:29;;;;;;;;;;;;;;;16.32;56.83;100004.66;5061310;28;1207;-54
2022/08/26 05:07:54;;;;;;;;;;;;;;;16.31;56.68;99999.47;5062118;28;1148;-54
2022/08/26 05:10:20;;;;;;;;;;;;;;;16.28;56.94;100000.03;5062847;28;1981;-53
2022/08/26 05:12:45;;;;;;;;;;;;;;;16.23;56.96;100006.41;5059994;28;1131;-52
2022/08/26 05:15:11;;;;;;;;;;;;;;;16.24;56.89;100003.38;5060701;28;1208;-54
2022/08/26 05:17:36;;;;;;;;;;;;;;;16.21;56.82;100009.41;5062862;28;1182;-51
2022/08/26 05:20:02;;;;;;;;;;;;;;;16.19;56.90;100003.41;5063070;28;1170;-53
2022/08/26 05:22:27;;;;;;;;;;;;;;;16.19;56.91;100008.09;5060152;28;1084;-54
2022/08/26 05:24:53;;;;;;;;;;;;;;;17.18;57.46;100006.66;5062041;28;1060;-53
2022/08/26 05:27:18;;;;;;;;;;;;;;;17.30;58.25;99997.97;5064842;28;1745;-54
2022/08/26 05:29:44;;;;;;;;;;;;;;;16.87;58.38;100000.72;5063523;28;1910;-55
2022/08/26 05:32:09;;;;;;;;;;;;;;;16.73;58.26;100006.94;5070653;28;1378;-54
2022/08/26 05:34:36;;;;;;;;;;;;;;;16.64;58.21;100008.69;5073001;28;967;-55
2022/08/26 05:37:03;;;;;;;;;;;;;;;16.66;57.49;100013.88;5060279;28;1370;-53
2022/08/26 05:39:30;;;;;;;;;;;;;;;16.55;57.74;100010.44;5070787;28;1121;-53
2022/08/26 05:41:56;;;;;;;;;;;;;;;16.55;57.41;100015.94;5069433;28;1457;-54
2022/08/26 05:44:21;;;;;;;;;;;;;;;16.71;58.31;100019.31;5064484;28;1084;-54
2022/08/26 05:46:46;;;;;;;;;;;;;;;17.56;55.82;100016.84;5074463;28;983;-55
2022/08/26 05:49:12;;;;;;;;;;;;;;;16.94;54.87;100023.19;5077775;28;1975;-55
2022/08/26 05:51:38;;;;;;;;;;;;;;;16.64;53.99;100019.66;5069584;28;1024;-53
2022/08/26 05:54:05;;;;;;;;;;;;;;;16.67;52.49;100019.09;5072463;28;1250;-53
2022/08/26 05:56:31;;;;;;;;;;;;;;;16.61;51.72;100014.78;5064709;28;1766;-51
2022/08/26 05:58:57;;;;;;;;;;;;;;;16.52;51.65;100019.25;5069839;28;858;-52
2022/08/26 06:01:24;;;;;;;;;;;;;;;16.56;50.78;100020.31;5068175;28;1278;-53
2022/08/26 06:03:50;;;;;;;;;;;;;;;16.56;50.70;100014.81;5069801;28;1171;-55
2022/08/26 06:06:17;;;;;;;;;;;;;;;17.03;52.64;100013.19;5071901;28;1190;-55
2022/08/26 06:08:42;;;;;;;;;;;;;;;16.84;51.81;100012.31;5062391;28;1976;-53
2022/08/26 06:11:09;;;;;;;;;;;;;;;16.76;51.22;100011.84;5070757;28;1342;-52
2022/08/26 06:13:34;;;;;;;;;;;;;;;16.74;50.63;100013.25;5066993;28;1120;-53
2022/08/26 06:16:01;;;;;;;;;;;;;;;16.70;50.13;100023.19;5074659;28;1001;-54
2022/08/26 06:18:33;;;;;;;;;;;;;;;16.64;49.95;100030.66;5076004;28;1068;-53
2022/08/26 06:20:59;;;;;;;;;;;;;;;16.73;49.36;100034.41;5063995;28;1396;-55
2022/08/26 06:26:09;;;;;;;;;;;;;;;16.60;49.27;100030.41;5068194;28;1881;-54
2022/08/26 06:28:35;;;;;;;;;;;;;;;16.65;49.04;100035.03;5065151;28;1980;-55
2022/08/26 06:31:00;;;;;;;;;;;;;;;16.71;48.78;100041.28;5071208;28;1100;-55
2022/08/26 06:33:27;;;;;;;;;;;;;;;16.57;48.94;100041.16;5068790;28;1301;-53
2022/08/26 06:35:53;;;;;;;;;;;;;;;16.69;48.56;100048.97;5071474;28;848;-53
2022/08/26 06:38:18;;;;;;;;;;;;;;;16.69;48.57;100052.56;5059196;28;1192;-54
2022/08/26 06:40:44;;;;;;;;;;;;;;;16.64;48.47;100047.13;5068054;28;1104;-49
2022/08/26 06:43:10;;;;;;;;;;;;;;;16.67;48.31;100054.78;5065402;28;998;-49
2022/08/26 06:45:37;;;;;;;;;;;;;;;16.65;48.29;100057.00;5063206;28;1337;-60
2022/08/26 06:48:03;;;;;;;;;;;;;;;16.73;48.01;100050.88;5064910;28;1120;-62
2022/08/26 06:50:28;;;;;;;;;;;;;;;16.68;48.09;100059.16;5062727;28;2014;-61
2022/08/26 06:52:54;;;;;;;;;;;;;;;16.64;48.06;100060.03;5065768;28;1206;-61
2022/08/26 06:55:19;;;;;;;;;;;;;;;16.68;47.99;100070.13;5065317;28;1742;-62
2022/08/26 06:57:44;;;;;;;;;;;;;;;16.72;47.99;100064.91;5065320;28;1325;-60
2022/08/26 07:00:10;;;;;;;;;;;;;;;16.67;48.10;100068.50;5064121;28;1226;-60
2022/08/26 07:02:36;;;;;;;;;;;;;;;16.76;47.92;100063.19;5066043;28;1289;-61
2022/08/26 07:05:02;;;;;;;;;;;;;;;16.68;48.04;100061.91;5059486;28;1127;-63
2022/08/26 07:07:28;;;;;;;;;;;;;;;16.63;48.01;100050.97;5064606;28;1262;-63
2022/08/26 07:09:53;;;;;;;;;;;;;;;16.71;47.73;100064.06;5064431;28;1963;-60
2022/08/26 07:12:19;;;;;;;;;;;;;;;16.80;47.72;100060.69;5065113;28;1159;-62
2022/08/26 07:14:44;;;;;;;;;;;;;;;16.83;47.31;100054.59;5064941;28;1270;-57
2022/08/26 07:17:10;;;;;;;;;;;;;;;16.78;47.33;100058.22;5067733;28;1239;-51
2022/08/26 07:19:35;;;;;;;;;;;;;;;16.65;47.99;100067.97;5067627;28;1409;-60
2022/08/26 07:22:01;;;;;;;;;;;;;;;16.76;47.87;100060.47;5062261;28;1001;-62
2022/08/26 07:24:27;;;;;;;;;;;;;;;16.84;47.70;100061.72;5068352;28;1175;-62
2022/08/26 07:26:52;;;;;;;;;;;;;;;16.78;47.82;100066.47;5074898;28;2085;-61
2022/08/26 07:29:18;;;;;;;;;;;;;;;16.78;47.74;100063.72;5067812;28;1902;-61
2022/08/26 07:31:44;;;;;;;;;;;;;;;16.77;47.94;100068.41;5066039;28;961;-60
2022/08/26 07:34:10;;;;;;;;;;;;;;;16.70;47.93;100072.59;5070005;28;1028;-61
2022/08/26 07:36:35;;;;;;;;;;;;;;;16.77;47.77;100067.56;5057478;28;1163;-62
2022/08/26 07:39:00;;;;;;;;;;;;;;;16.79;47.64;100075.50;5068773;28;1277;-62
2022/08/26 07:41:26;;;;;;;;;;;;;;;16.75;47.99;100080.78;5072526;28;1195;-60
2022/08/26 07:43:52;;;;;;;;;;;;;;;16.75;47.82;100073.34;5060196;28;998;-64
2022/08/26 07:46:18;;;;;;;;;;;;;;;16.83;47.85;100073.81;5063504;28;1132;-63
2022/08/26 07:48:44;;;;;;;;;;;;;;;16.82;47.89;100069.44;5071139;28;1970;-62
2022/08/26 07:51:10;;;;;;;;;;;;;;;16.79;47.73;100081.00;5075543;28;1126;-63
2022/08/26 07:53:35;;;;;;;;;;;;;;;16.81;47.83;100079.59;5075218;28;1067;-63
2022/08/26 07:56:01;;;;;;;;;;;;;;;16.85;47.55;100074.34;5074910;28;1926;-64
2022/08/26 07:58:27;;;;;;;;;;;;;;;16.81;47.56;100068.63;5060439;28;1452;-64
2022/08/26 08:00:53;;;;;;;;;;;;;;;16.90;47.37;100066.91;5063110;28;1393;-64
2022/08/26 08:03:19;;;;;;;;;;;;;;;16.86;47.44;100051.28;5064590;28;1246;-62
2022/08/26 08:05:44;;;;;;;;;;;;;;;16.86;47.34;100056.78;5061111;28;1033;-64
2022/08/26 08:08:10;;;;;;;;;;;;;;;16.81;47.38;100054.88;5066747;28;1207;-61
2022/08/26 08:10:35;;;;;;;;;;;;;;;16.87;47.31;100059.22;5066317;28;1967;-62
2022/08/26 08:13:01;;;;;;;;;;;;;;;16.87;47.12;100052.91;5068324;28;859;-65
2022/08/26 08:15:27;;;;;;;;;;;;;;;16.85;47.45;100063.38;5070770;28;950;-51
2022/08/26 08:17:53;;;;;;;;;;;;;;;16.85;47.30;100052.38;5065661;28;1148;-53
2022/08/26 08:20:19;;;;;;;;;;;;;;;16.77;47.54;100051.09;5063875;28;1200;-52
2022/08/26 08:22:44;;;;;;;;;;;;;;;16.82;47.57;100052.97;5064699;28;1243;-50
2022/08/26 08:25:10;;;;;;;;;;;;;;;16.94;47.14;100047.88;5064842;28;937;-52
2022/08/26 08:27:35;;;;;;;;;;;;;;;16.75;47.54;100043.16;5062432;28;2149;-56
2022/08/26 08:30:01;;;;;;;;;;;;;;;16.78;47.47;100047.25;5064749;28;1906;-52
2022/08/26 08:32:28;;;;;;;;;;;;;;;16.83;47.24;100049.09;5065603;28;1215;-53
2022/08/26 08:34:53;;;;;;;;;;;;;;;16.85;47.52;100046.91;5062820;28;1191;-50
2022/08/26 08:37:19;;;;;;;;;;;;;;;16.91;47.28;100041.09;5064106;28;1286;-51
2022/08/26 08:39:44;;;;;;;;;;;;;;;16.84;47.49;100045.25;5065912;28;1195;-53
2022/08/26 08:42:19;;;;;;;;;;;;;;;16.95;47.05;100041.28;5068893;28;1246;-49
2022/08/26 08:44:45;;;;;;;;;;;;;;;16.95;47.13;100044.03;5068955;28;1246;-54
2022/08/26 08:47:16;;;;;;;;;;;;;;;16.90;47.07;100038.59;5067630;28;1226;-51
2022/08/26 08:49:42;;;;;;;;;;;;;;;16.87;47.23;100041.91;5069353;28;1905;-53
2022/08/26 08:52:09;;;;;;;;;;;;;;;16.97;47.09;100043.75;5047987;28;1243;-51
2022/08/26 08:54:35;;;;;;;;;;;;;;;16.96;47.35;100044.84;5043245;28;1128;-53
2022/08/26 08:57:01;;;;;;;;;;;;;;;16.90;47.34;100041.34;5067329;28;1895;-54
2022/08/26 08:59:30;;;;;;;;;;;;;;;16.91;47.11;100040.25;5049271;28;1293;-53
2022/08/26 09:02:08;;;;;;;;;;;;;;;16.89;47.13;100031.50;5063617;28;1247;-52
2022/08/26 09:04:42;;;;;;;;;;;;;;;16.87;47.14;100034.50;5049218;28;1184;-52
2022/08/26 09:07:09;;;;;;;;;;;;;;;16.86;47.14;100038.34;5067597;28;1266;-52
2022/08/26 09:09:46;;;;;;;;;;;;;;;16.86;47.09;100032.88;5053309;28;1913;-54
2022/08/26 09:12:15;;;;;;;;;;;;;;;16.94;47.00;100036.91;5048604;28;1212;-52
2022/08/26 09:14:42;;;;;;;;;;;;;;;16.95;46.90;100038.56;5049734;28;1370;-53
2022/08/26 09:17:26;;;;;;;;;;;;;;;16.91;47.03;100034.75;5044454;28;1199;-55
2022/08/26 09:19:52;;;;;;;;;;;;;;;16.91;46.99;100030.09;5071779;28;973;-51
2022/08/26 09:22:27;;;;;;;;;;;;;;;16.88;46.92;100033.41;5062766;28;1052;-52
2022/08/26 09:24:53;;;;;;;;;;;;;;;16.92;46.78;100033.66;5063171;28;1441;-53
2022/08/26 09:27:37;;;;;;;;;;;;;;;16.93;46.92;100032.56;5061918;28;1843;-54
2022/08/26 09:30:03;;;;;;;;;;;;;;;16.91;47.07;100023.78;5070308;28;1921;-52
2022/08/26 09:32:30;;;;;;;;;;;;;;;16.94;46.90;100025.91;5068583;28;1123;-48
2022/08/26 09:35:00;;;;;;;;;;;;;;;16.89;47.15;100020.50;5076989;28;1183;-52
2022/08/26 09:37:35;;;;;;;;;;;;;;;17.01;46.89;100029.16;5075310;28;1404;-50
2022/08/26 09:40:17;;;;;;;;;;;;;;;16.87;47.25;100029.03;5059204;28;1334;-53
2022/08/26 09:42:42;;;;;;;;;;;;;;;16.95;47.29;100032.25;5063162;28;1227;-53
2022/08/26 09:45:12;;;;;;;;;;;;;;;17.00;47.20;100035.75;5077344;28;950;-54
2022/08/26 09:47:44;;;;;;;;;;;;;;;17.00;47.04;100035.75;5071896;28;1138;-52
2022/08/26 09:50:17;;;;;;;;;;;;;;;16.97;47.14;100030.84;5072487;28;1913;-54
2022/08/26 09:52:43;;;;;;;;;;;;;;;17.01;47.37;100034.66;5065991;28;1481;-54
2022/08/26 09:55:08;;;;;;;;;;;;;;;17.03;47.44;100037.91;5062862;28;1104;-52
2022/08/26 09:57:34;;;;;;;;;;;;;;;16.96;47.34;100042.94;5059572;28;2191;-52
2022/08/26 10:00:00;;;;;;;;;;;;;;;17.04;47.19;100047.78;5069962;28;1021;-54
2022/08/26 10:02:32;;;;;;;;;;;;;;;17.04;47.36;100050.53;5068133;28;1116;-53
2022/08/26 10:04:58;;;;;;;;;;;;;;;17.04;47.01;100042.28;5064492;28;1246;-54
2022/08/26 10:07:46;;;;;;;;;;;;;;;16.99;47.27;100042.34;5068495;28;1228;-54
2022/08/26 10:10:14;;;;;;;;;;;;;;;17.05;47.30;100057.63;5065905;28;1922;-54
2022/08/26 10:13:06;;;;;;;;;;;;;;;17.08;47.22;100057.06;5063436;28;1227;-54
2022/08/26 10:15:34;;;;;;;;;;;;;;;16.96;47.51;100051.19;5062435;28;1820;-55
2022/08/26 10:18:08;;;;;;;;;;;;;;;17.10;47.27;100057.56;5048517;28;1266;-55
2022/08/26 10:20:34;;;;;;;;;;;;;;;17.02;47.13;100047.25;5048297;28;1231;-52
2022/08/26 10:23:07;;;;;;;;;;;;;;;17.03;47.04;100037.09;5068720;28;1203;-53
2022/08/26 10:25:43;;;;;;;;;;;;;;;17.12;46.91;100045.50;5048121;28;1931;-52
2022/08/26 10:28:10;;;;;;;;;;;;;;;17.10;46.93;100043.03;5047286;28;1299;-49
2022/08/26 10:30:38;;;;;;;;;;;;;;;17.03;47.06;100035.16;5050258;28;1905;-53
2022/08/26 10:33:07;;;;;;;;;;;;;;;17.06;47.07;100037.31;5070226;28;1238;-54
2022/08/26 10:35:33;;;;;;;;;;;;;;;17.04;46.87;100034.06;5068091;28;1255;-52
2022/08/26 10:38:03;;;;;;;;;;;;;;;17.07;47.10;100035.38;5043738;28;1350;-52
2022/08/26 10:40:41;;;;;;;;;;;;;;;17.02;47.14;100039.00;5041988;28;1540;-54
2022/08/26 10:43:08;;;;;;;;;;;;;;;17.08;46.86;100026.84;5065643;28;1140;-54
2022/08/26 10:45:40;;;;;;;;;;;;;;;17.04;46.81;100033.22;5051730;28;1041;-51
2022/08/26 10:48:11;;;;;;;;;;;;;;;17.03;46.90;100037.91;5076164;28;1103;-55
2022/08/26 10:50:38;;;;;;;;;;;;;;;17.07;46.90;100027.16;5055760;28;1905;-53
2022/08/26 10:53:07;;;;;;;;;;;;;;;17.10;46.91;100032.06;5075056;28;1120;-51
2022/08/26 10:55:32;;;;;;;;;;;;;;;17.02;47.13;100039.00;5043411;28;1971;-56
2022/08/26 10:57:59;;;;;;;;;;;;;;;17.07;46.86;100033.44;5063913;28;1112;-54
2022/08/26 11:03:14;;;;;;;;;;;;;;;17.00;47.27;100030.25;5073495;28;1175;-53
2022/08/26 11:05:39;;;;;;;;;;;;;;;17.00;46.80;100027.50;5070604;28;1366;-52
2022/08/26 11:08:20;;;;;;;;;;;;;;;17.06;46.96;100031.00;5066024;28;1249;-53
2022/08/26 11:10:53;;;;;;;;;;;;;;;17.07;47.03;100027.97;5064492;28;1973;-52
2022/08/26 11:13:19;;;;;;;;;;;;;;;17.08;46.68;100024.09;5067322;28;986;-52
2022/08/26 11:15:44;;;;;;;;;;;;;;;17.05;46.97;100030.16;5051875;28;982;-51
2022/08/26 11:18:10;;;;;;;;;;;;;;;17.04;47.31;100023.06;5061330;28;1575;-49
2022/08/26 11:20:45;;;;;;;;;;;;;;;17.10;47.04;100016.38;5046348;28;1227;-55
2022/08/26 11:23:11;;;;;;;;;;;;;;;17.07;46.96;100013.41;5064071;28;1116;-53
2022/08/26 11:25:56;;;;;;;;;;;;;;;17.07;47.06;100011.47;5065115;28;1785;-53
2022/08/26 11:28:34;;;;;;;;;;;;;;;17.12;46.87;100009.78;5062418;28;1377;-55
2022/08/26 11:31:00;;;;;;;;;;;;;;;17.07;46.74;100003.25;5068839;28;1894;-54
2022/08/26 11:33:44;;;;;;;;;;;;;;;17.03;47.12;100004.94;5062568;28;1409;-53
2022/08/26 11:36:10;;;;;;;;;;;;;;;17.07;46.86;100005.97;5070120;28;1542;-53
2022/08/26 11:38:35;;;;;;;;;;;;;;;17.14;46.82;100000.13;5044085;28;1406;-52
2022/08/26 11:41:08;;;;;;;;;;;;;;;17.02;47.03;100014.28;5042605;28;1541;-53
2022/08/26 11:43:33;;;;;;;;;;;;;;;17.02;47.11;100014.28;5062741;28;1287;-53
2022/08/26 11:46:02;;;;;;;;;;;;;;;17.10;46.87;100010.88;5047706;28;1242;-54
2022/08/26 11:48:32;;;;;;;;;;;;;;;17.09;46.92;100017.47;5060721;28;1249;-54
2022/08/26 11:51:06;;;;;;;;;;;;;;;17.14;46.68;100013.03;5064551;28;1976;-52
2022/08/26 11:53:33;;;;;;;;;;;;;;;17.14;46.69;100008.38;5059310;28;1226;-52
2022/08/26 11:55:59;;;;;;;;;;;;;;;17.04;47.17;100005.75;5064666;28;1848;-54
2022/08/26 11:58:25;;;;;;;;;;;;;;;17.13;47.04;100014.16;5043544;28;1026;-54
2022/08/26 12:00:58;;;;;;;;;;;;;;;17.15;46.83;100007.22;5046927;28;1216;-54
2022/08/26 12:03:27;;;;;;;;;;;;;;;17.13;47.17;99997.69;5043875;28;1117;-52
2022/08/26 12:05:52;;;;;;;;;;;;;;;17.19;46.87;100002.78;5044143;28;1406;-54
2022/08/26 12:08:20;;;;;;;;;;;;;;;17.18;46.79;99992.09;5045457;28;1109;-53
2022/08/26 12:10:47;;;;;;;;;;;;;;;17.08;47.31;99999.38;5043986;28;1906;-54
2022/08/26 12:13:19;;;;;;;;;;;;;;;17.17;47.09;100004.22;5064977;28;1073;-53
2022/08/26 12:15:50;;;;;;;;;;;;;;;17.15;47.18;100000.94;5069850;28;1190;-54
2022/08/26 12:18:17;;;;;;;;;;;;;;;17.16;47.12;99997.88;5059203;28;1207;-53
2022/08/26 12:20:47;;;;;;;;;;;;;;;17.18;47.17;99997.59;5068607;28;1355;-49
2022/08/26 12:23:31;;;;;;;;;;;;;;;17.12;47.36;99996.03;5052285;28;1439;-53
2022/08/26 12:26:15;;;;;;;;;;;;;;;17.19;47.02;99989.06;5067814;28;1958;-52
2022/08/26 12:28:44;;;;;;;;;;;;;;;17.16;47.07;99991.59;5068677;28;1152;-53
2022/08/26 12:31:11;;;;;;;;;;;;;;;17.23;47.17;99987.34;5062337;28;2017;-53
2022/08/26 12:33:37;;;;;;;;;;;;;;;17.21;47.27;99988.78;5055274;28;1502;-52
2022/08/26 12:36:03;;;;;;;;;;;;;;;17.15;47.19;99992.69;5051504;28;1047;-52
2022/08/26 12:38:29;;;;;;;;;;;;;;;17.15;47.19;99989.94;5047597;28;1316;-55
2022/08/26 12:40:55;;;;;;;;;;;;;;;17.25;47.05;99984.28;5071527;28;1160;-53
2022/08/26 12:43:38;;;;;;;;;;;;;;;17.16;47.31;99986.09;5067525;28;977;-55
2022/08/26 12:46:03;;;;;;;;;;;;;;;17.27;47.65;99982.09;5078325;28;911;-56
2022/08/26 12:48:30;;;;;;;;;;;;;;;17.32;47.30;99987.50;5049844;28;1260;-54
2022/08/26 12:50:55;;;;;;;;;;;;;;;17.18;47.52;99984.69;5078184;28;1913;-53
2022/08/26 12:53:28;;;;;;;;;;;;;;;17.24;47.35;99979.94;5078198;28;981;-53
2022/08/26 12:55:54;;;;;;;;;;;;;;;17.24;47.24;99977.19;5076194;28;1849;-55
2022/08/26 12:58:21;;;;;;;;;;;;;;;17.21;47.07;99981.34;5059365;28;1421;-56